Smithfield, Maine
Current Conditions -  °F | °C
As of 7:55 AM on Wednesday 26 Nov 2014 (Local Time) from KWVL Reporting Station
Clear Clear  
Wind Chill: 35°   Ceiling: Unl
Heat Index: 39°   Visibility: 10mi
Dew Point: 19°   Wind: 6mph
Humidity: 45%   Direction: 310°NW
Pressure: 30.18"   Gusts: NA
Location:  44.63°N, 69.83°W
Report Text: KWVL 261255Z 31005KT 10SM CLR 04/M07 A3018 RMK AO1
Loading
Personal Weather Stations






























Interactive Weather Map New forecast layout! Learn more

10-Day Weather Forecast

Advertisements
Track Severe Weather on mobile